Portada
METAR-TAF:

METAR-TAF

Aeropuertos :

Gran Canaria, España

Aeropuerto de Gran Canaria

latitud: 27-56N, longitud: 015-23W, altitud: 23 m

Observación

El informe se hizo hace 30 minutos, a las 14:00 UTC
Viento 21 kt del norte-noreste
Temperatura 22°C
Humedad 60%
Presión 1018 hPa
Visibilidad 10 km o más
Escasas nubes a una altura de 3500 ft

METAR: GCLP 241400Z 03021KT 9999 FEW035 22/14 Q1018 NOSIG

Hora: 15:30 (14:30 UTC)

Pronóstico

El informe se hizo hace 6 horas y 30 minutos, a las 08:00 UTC
Pronóstico válido del 24 a las 09 UTC al 25 a las 09 UTC
Viento 15 kt del norte
Visibilidad 10 km o más
Nubes dispersas a una altura de 3000 ft

TAF: GCLP 240800Z 2409/2509 01015KT 9999 SCT030 TX22/2414Z TN17/2505Z

Observaciones y pronósticos meteorológicos de más de 4000 aeropuertos (mensajes METAR y TAF).

Los puntos amarillos y rojos representan las estaciones disponibles.

Ponga el ratón en el punto deseado para ver el nombre de la estación.

Haga clic para ver las observaciones y los pronósticos meteorológicos.

Para cambiar el mapa : haga clic en los botones verdes con una cruz de color negro para hacer un zoom, en el botón verde con un guión para alejar o en las flechas verdes para mapas adyacentes.


METAR-TAF: